Time;durP1;ratioP1;P1;durP2;ratioP2;P2;SDS_P1;SDS_P2;PMS_P1;PMS_P2;Temp;Humidity;BMP_temperature;BMP_pressure;BME280_temperature;BME280_humidity;BME280_pressure;Samples;Min_cycle;Max_cycle;Signal;HPM_P1;HPM_P2
2022/10/27 00:00:09;;;;;;;5.10;4.23;;;;;;;8.94;100.00;101514.97;4972958;28;20563;-74
2022/10/27 00:02:43;;;;;;;5.53;3.97;;;;;;;8.99;100.00;101518.41;4971232;28;20212;-74
2022/10/27 00:05:09;;;;;;;8.43;4.83;;;;;;;8.97;100.00;101516.66;4975418;28;20199;-74
2022/10/27 00:07:36;;;;;;;10.20;4.93;;;;;;;9.01;100.00;101523.59;4979634;28;20206;-73
2022/10/27 00:10:05;;;;;;;6.10;4.30;;;;;;;9.02;100.00;101522.72;4982269;28;20305;-75
2022/10/27 00:12:32;;;;;;;4.57;4.13;;;;;;;9.03;100.00;101524.47;4976592;28;20217;-73
2022/10/27 00:14:59;;;;;;;8.43;4.93;;;;;;;9.12;100.00;101528.75;4968069;28;20207;-74
2022/10/27 00:17:25;;;;;;;12.40;5.10;;;;;;;9.17;100.00;101540.00;4982709;28;20207;-74
2022/10/27 00:19:52;;;;;;;7.67;4.60;;;;;;;9.23;100.00;101542.53;4980189;28;20202;-74
2022/10/27 00:22:18;;;;;;;8.97;4.77;;;;;;;9.22;100.00;101543.44;4975317;28;20221;-73
2022/10/27 00:24:44;;;;;;;9.40;5.10;;;;;;;9.24;100.00;101542.53;4963289;28;20206;-74
2022/10/27 00:27:12;;;;;;;9.00;6.33;;;;;;;9.28;100.00;101543.38;4975342;28;20609;-74
2022/10/27 00:29:38;;;;;;;7.80;5.77;;;;;;;9.26;100.00;101546.00;4981006;28;20233;-74
2022/10/27 00:32:05;;;;;;;7.57;5.00;;;;;;;9.22;100.00;101552.09;4979096;28;20213;-74
2022/10/27 00:34:31;;;;;;;7.80;4.83;;;;;;;9.18;100.00;101554.72;4981296;28;20252;-75
2022/10/27 00:36:58;;;;;;;7.00;5.23;;;;;;;9.14;100.00;101551.28;4980308;28;20198;-74
2022/10/27 00:39:24;;;;;;;7.63;5.10;;;;;;;9.12;100.00;101558.22;4979859;28;20206;-74
2022/10/27 00:41:51;;;;;;;10.73;5.17;;;;;;;9.15;100.00;101562.56;4980841;28;20224;-74
2022/10/27 00:44:34;;;;;;;7.50;5.07;;;;;;;9.11;100.00;101564.28;4968375;28;20210;-73
2022/10/27 00:47:04;;;;;;;14.73;5.37;;;;;;;9.09;100.00;101564.31;4981773;28;20224;-74
2022/10/27 00:49:35;;;;;;;8.60;4.90;;;;;;;9.08;100.00;101566.94;4981859;28;20210;-74
2022/10/27 00:52:04;;;;;;;8.33;5.20;;;;;;;9.06;100.00;101573.88;4982727;28;20534;-74
2022/10/27 00:54:36;;;;;;;6.43;5.17;;;;;;;9.02;100.00;101566.94;4980057;28;20207;-74
2022/10/27 00:57:04;;;;;;;8.47;5.80;;;;;;;8.99;100.00;101569.56;4985904;28;20205;-74
2022/10/27 00:59:32;;;;;;;8.07;5.20;;;;;;;8.99;100.00;101572.16;4967446;28;20983;-74
2022/10/27 01:01:59;;;;;;;7.43;5.03;;;;;;;8.97;100.00;101577.38;4983444;28;20232;-74
2022/10/27 01:04:34;;;;;;;6.67;5.10;;;;;;;8.95;100.00;101580.84;4983604;28;20193;-74
2022/10/27 01:07:01;;;;;;;7.60;4.77;;;;;;;8.94;100.00;101587.78;4985085;28;20847;-73
2022/10/27 01:09:29;;;;;;;9.17;4.97;;;;;;;8.96;100.00;101590.41;4982004;28;20273;-74
2022/10/27 01:11:55;;;;;;;5.43;4.73;;;;;;;8.95;100.00;101589.50;4979687;28;20516;-74
2022/10/27 01:14:22;;;;;;;6.70;4.83;;;;;;;8.91;100.00;101587.81;4985601;28;20206;-74
2022/10/27 01:16:59;;;;;;;5.87;4.53;;;;;;;8.91;100.00;101588.66;4985674;28;20211;-74
2022/10/27 01:19:52;;;;;;;7.20;5.10;;;;;;;8.86;100.00;101593.00;4981751;28;20482;-74
2022/10/27 01:22:24;;;;;;;8.10;5.73;;;;;;;8.82;100.00;101595.66;4984175;28;20229;-74
2022/10/27 01:25:11;;;;;;;6.07;4.90;;;;;;;8.80;100.00;101592.19;4985502;28;20316;-74
2022/10/27 01:27:59;;;;;;;6.60;5.07;;;;;;;8.81;100.00;101591.31;4965663;28;20585;-74
2022/10/27 01:30:29;;;;;;;8.47;5.30;;;;;;;8.78;100.00;101592.19;4979664;28;20593;-74
2022/10/27 01:33:05;;;;;;;6.27;4.87;;;;;;;8.78;100.00;101589.59;4984408;28;20660;-74
2022/10/27 01:35:38;;;;;;;10.10;4.70;;;;;;;8.78;100.00;101596.53;4983044;28;20564;-74
2022/10/27 01:38:12;;;;;;;6.80;5.13;;;;;;;8.74;100.00;101587.00;4983244;28;20285;-74
2022/10/27 01:40:45;;;;;;;7.07;4.63;;;;;;;8.69;100.00;101587.03;4983613;28;20239;-74
2022/10/27 01:43:17;;;;;;;8.07;5.03;;;;;;;8.67;100.00;101594.81;4986601;28;20295;-74
2022/10/27 01:45:45;;;;;;;6.77;5.13;;;;;;;8.66;100.00;101594.81;4984061;28;20219;-74
2022/10/27 01:48:13;;;;;;;6.80;5.17;;;;;;;8.67;100.00;101596.53;4964269;28;20207;-74
2022/10/27 01:50:42;;;;;;;8.67;5.47;;;;;;;8.67;100.00;101594.81;4984170;28;20361;-74
2022/10/27 01:53:10;;;;;;;7.37;5.30;;;;;;;8.63;100.00;101595.69;4984291;28;20281;-74
2022/10/27 01:55:47;;;;;;;7.17;5.73;;;;;;;8.63;100.00;101592.22;4983915;28;20229;-74
2022/10/27 01:58:35;;;;;;;6.53;5.00;;;;;;;8.61;100.00;101597.44;4984337;28;20312;-74
2022/10/27 02:01:17;;;;;;;9.33;5.53;;;;;;;8.63;100.00;101595.69;4979747;28;20248;-74
2022/10/27 02:03:52;;;;;;;8.83;5.87;;;;;;;8.67;100.00;101600.03;4986906;28;20205;-74
2022/10/27 02:06:26;;;;;;;6.37;5.27;;;;;;;8.69;100.00;101603.47;4983489;28;20201;-74
2022/10/27 02:08:56;;;;;;;6.93;5.47;;;;;;;8.73;100.00;101606.09;4986423;28;20217;-74
2022/10/27 02:11:22;;;;;;;6.40;5.40;;;;;;;8.72;100.00;101600.00;4986402;28;20609;-74
2022/10/27 02:13:49;;;;;;;7.93;5.37;;;;;;;8.70;100.00;101610.41;4985009;28;20206;-74
2022/10/27 02:16:21;;;;;;;10.10;5.90;;;;;;;8.70;100.00;101613.00;4982973;28;20576;-74
2022/10/27 02:18:53;;;;;;;7.00;5.70;;;;;;;8.74;100.00;101611.25;4982105;28;20494;-74
2022/10/27 02:21:22;;;;;;;10.07;5.73;;;;;;;8.72;100.00;101610.41;4982667;28;20296;-74
2022/10/27 02:23:48;;;;;;;13.50;5.87;;;;;;;8.70;100.00;101609.53;4980754;28;20608;-74
2022/10/27 02:26:20;;;;;;;8.77;6.00;;;;;;;8.67;100.00;101612.13;4963499;28;20209;-74
2022/10/27 02:28:51;;;;;;;10.63;5.50;;;;;;;8.65;100.00;101619.09;4985478;28;20225;-74
2022/10/27 02:31:19;;;;;;;6.90;5.77;;;;;;;8.62;100.00;101614.75;4977224;28;20236;-74
2022/10/27 02:33:47;;;;;;;6.47;5.30;;;;;;;8.60;100.00;101618.22;4983942;28;20205;-74
2022/10/27 02:36:15;;;;;;;9.27;5.97;;;;;;;8.57;100.00;101616.50;4981040;28;20216;-74
2022/10/27 02:38:41;;;;;;;5.80;5.10;;;;;;;8.55;100.00;101619.97;4980762;28;20325;-73
2022/10/27 02:41:08;;;;;;;6.77;5.43;;;;;;;8.50;100.00;101623.44;4976284;28;20668;-74
2022/10/27 02:43:34;;;;;;;6.33;5.40;;;;;;;8.46;100.00;101618.25;4980570;28;20296;-74
2022/10/27 02:46:00;;;;;;;7.63;5.00;;;;;;;8.47;100.00;101627.78;4980392;28;20205;-74
2022/10/27 02:48:28;;;;;;;7.53;5.47;;;;;;;8.45;100.00;101624.31;4985871;28;20209;-74
2022/10/27 02:53:30;;;;;;;8.03;5.67;;;;;;;8.46;100.00;101613.03;4991689;28;20261;-71
2022/10/27 02:55:56;;;;;;;9.80;5.77;;;;;;;8.45;100.00;101613.94;4998980;28;20197;-72
2022/10/27 02:58:22;;;;;;;8.00;5.63;;;;;;;8.44;100.00;101613.06;4998763;28;20284;-72
2022/10/27 03:00:53;;;;;;;9.23;6.00;;;;;;;8.46;100.00;101616.53;4998080;28;20198;-70
2022/10/27 03:03:19;;;;;;;8.20;5.40;;;;;;;8.50;100.00;101617.38;4981664;28;20205;-70
2022/10/27 03:05:46;;;;;;;10.33;5.93;;;;;;;8.53;100.00;101623.44;4978691;28;20206;-72
2022/10/27 03:08:12;;;;;;;7.37;5.80;;;;;;;8.55;100.00;101626.06;4980505;28;20209;-72
2022/10/27 03:10:40;;;;;;;8.30;6.20;;;;;;;8.49;100.00;101628.66;4982333;28;20224;-71
2022/10/27 03:13:06;;;;;;;7.73;5.70;;;;;;;8.45;100.00;101634.72;4979952;28;20732;-71
2022/10/27 03:15:35;;;;;;;9.07;5.40;;;;;;;8.44;100.00;101643.38;4979375;28;20594;-72
2022/10/27 03:18:02;;;;;;;11.33;6.30;;;;;;;8.45;100.00;101648.56;4979897;28;20218;-72
2022/10/27 03:20:28;;;;;;;8.73;6.03;;;;;;;8.40;100.00;101655.47;4979011;28;20201;-72
2022/10/27 03:22:55;;;;;;;13.53;6.20;;;;;;;8.37;100.00;101652.00;4983330;28;20235;-72
2022/10/27 03:25:21;;;;;;;10.17;5.90;;;;;;;8.33;100.00;101651.16;4979526;28;20209;-72
2022/10/27 03:27:53;;;;;;;12.00;5.80;;;;;;;8.31;100.00;101647.69;4978085;28;20284;-72
2022/10/27 03:30:19;;;;;;;8.63;5.53;;;;;;;8.28;100.00;101653.75;4978674;28;20225;-72
2022/10/27 03:32:47;;;;;;;7.70;5.17;;;;;;;8.30;100.00;101664.13;4981002;28;20221;-71
2022/10/27 03:35:14;;;;;;;7.07;5.47;;;;;;;8.27;100.00;101656.38;4980033;28;21173;-72
2022/10/27 03:37:40;;;;;;;9.53;5.70;;;;;;;8.25;100.00;101663.25;4980392;28;20198;-72
2022/10/27 03:40:08;;;;;;;7.63;5.40;;;;;;;8.28;100.00;101665.88;4978111;28;20209;-71
2022/10/27 03:42:35;;;;;;;7.00;5.60;;;;;;;8.24;100.00;101670.19;4979320;28;20308;-72
2022/10/27 03:45:02;;;;;;;8.13;6.20;;;;;;;8.24;100.00;101661.56;4980007;28;20223;-72
2022/10/27 03:47:29;;;;;;;7.63;5.87;;;;;;;8.26;100.00;101657.22;4980067;28;20637;-72
2022/10/27 03:49:55;;;;;;;7.90;6.00;;;;;;;8.28;100.00;101665.88;4976667;28;20213;-72
2022/10/27 03:52:22;;;;;;;10.40;6.43;;;;;;;8.28;100.00;101671.06;4991661;28;20263;-71
2022/10/27 03:54:48;;;;;;;7.17;5.50;;;;;;;8.27;100.00;101680.59;5001695;28;20208;-72
2022/10/27 03:57:14;;;;;;;9.00;6.30;;;;;;;8.23;100.00;101675.41;4999996;28;20200;-72
2022/10/27 03:59:41;;;;;;;7.43;5.80;;;;;;;8.22;100.00;101679.72;4999022;28;20569;-72
2022/10/27 04:02:08;;;;;;;8.33;5.80;;;;;;;8.23;100.00;101678.00;4998946;28;20223;-72
2022/10/27 04:04:35;;;;;;;8.60;6.03;;;;;;;8.18;100.00;101684.91;4996973;28;20666;-72
2022/10/27 04:07:01;;;;;;;7.77;5.37;;;;;;;8.13;100.00;101680.59;4999163;28;20207;-72
2022/10/27 04:09:27;;;;;;;7.87;5.33;;;;;;;8.12;100.00;101686.63;5000213;28;20201;-71
2022/10/27 04:11:54;;;;;;;9.93;6.43;;;;;;;8.10;100.00;101683.19;4997895;28;20228;-72
2022/10/27 04:14:21;;;;;;;7.73;5.90;;;;;;;8.10;100.00;101688.38;4997418;28;20205;-72
2022/10/27 04:16:50;;;;;;;8.33;5.63;;;;;;;8.09;100.00;101691.84;5000329;28;20216;-72
2022/10/27 04:19:18;;;;;;;7.07;5.80;;;;;;;8.07;100.00;101693.59;5001008;28;20259;-72
2022/10/27 04:21:45;;;;;;;7.03;5.87;;;;;;;8.07;100.00;101688.41;4999086;28;20216;-72
2022/10/27 04:24:11;;;;;;;8.00;5.73;;;;;;;8.06;100.00;101693.59;5000142;28;20201;-72
2022/10/27 04:26:38;;;;;;;6.27;5.60;;;;;;;7.98;100.00;101698.75;4999154;28;20600;-72
2022/10/27 04:29:04;;;;;;;6.97;5.50;;;;;;;7.94;100.00;101699.63;5003886;28;20576;-71
2022/10/27 04:31:31;;;;;;;9.03;5.23;;;;;;;7.89;100.00;101691.81;4997937;28;20233;-72
2022/10/27 04:33:58;;;;;;;7.23;5.27;;;;;;;7.86;100.00;101699.63;5005095;28;20197;-72
2022/10/27 04:36:25;;;;;;;8.53;5.67;;;;;;;7.87;100.00;101705.66;4998491;28;20258;-71
2022/10/27 04:38:52;;;;;;;8.27;5.70;;;;;;;7.86;100.00;101711.72;5001592;28;20218;-72
2022/10/27 04:41:18;;;;;;;9.47;6.03;;;;;;;7.84;100.00;101713.44;5002642;28;20239;-71
2022/10/27 04:43:48;;;;;;;8.33;5.87;;;;;;;7.82;100.00;101713.44;5003412;28;20657;-72
2022/10/27 04:46:15;;;;;;;8.07;5.60;;;;;;;7.82;100.00;101716.03;4999979;28;20197;-71
2022/10/27 04:48:41;;;;;;;7.90;5.60;;;;;;;7.78;100.00;101707.38;5005528;28;20661;-72
2022/10/27 04:51:07;;;;;;;10.57;5.57;;;;;;;7.73;100.00;101711.69;5003422;28;20220;-71
2022/10/27 04:53:35;;;;;;;6.23;4.90;;;;;;;7.71;100.00;101720.34;5002838;28;20209;-71
2022/10/27 04:56:01;;;;;;;6.20;5.60;;;;;;;7.66;100.00;101720.31;5000636;28;20200;-71
2022/10/27 04:58:28;;;;;;;6.47;5.10;;;;;;;7.69;100.00;101729.84;5001673;28;20206;-72
2022/10/27 05:00:54;;;;;;;8.43;4.83;;;;;;;7.65;100.00;101725.50;5002780;28;20196;-72
2022/10/27 05:03:20;;;;;;;7.50;5.03;;;;;;;7.58;100.00;101727.19;4993041;28;20298;-72
2022/10/27 05:05:47;;;;;;;7.53;5.20;;;;;;;7.50;100.00;101732.38;4998057;28;20635;-72
2022/10/27 05:08:14;;;;;;;12.07;5.50;;;;;;;7.50;100.00;101732.38;4995585;28;20198;-72
2022/10/27 05:10:42;;;;;;;6.87;4.87;;;;;;;7.51;100.00;101730.63;4998595;28;20235;-71
2022/10/27 05:13:08;;;;;;;7.03;5.53;;;;;;;7.47;100.00;101737.53;4999380;28;20220;-72
2022/10/27 05:15:35;;;;;;;6.83;5.70;;;;;;;7.45;100.00;101738.41;4996985;28;20679;-72
2022/10/27 05:18:01;;;;;;;9.93;6.80;;;;;;;7.44;100.00;101739.25;4997570;28;20281;-72
2022/10/27 05:20:27;;;;;;;9.23;5.97;;;;;;;7.44;100.00;101737.53;4990622;28;20209;-72
2022/10/27 05:22:54;;;;;;;8.23;5.60;;;;;;;7.44;100.00;101749.63;4997147;28;20623;-72
2022/10/27 05:25:20;;;;;;;10.97;6.37;;;;;;;7.44;100.00;101757.41;4999016;28;20201;-72
2022/10/27 05:27:48;;;;;;;11.53;5.40;;;;;;;7.44;100.00;101757.41;4998258;28;20209;-71
2022/10/27 05:30:16;;;;;;;8.13;5.53;;;;;;;7.37;100.00;101759.13;4996211;28;20554;-72
2022/10/27 05:32:42;;;;;;;7.70;5.90;;;;;;;7.36;100.00;101757.38;4996989;28;20227;-71
2022/10/27 05:35:09;;;;;;;9.10;5.83;;;;;;;7.33;100.00;101755.63;4995417;28;20207;-72
2022/10/27 05:37:36;;;;;;;8.00;5.70;;;;;;;7.33;100.00;101762.56;4996941;28;20207;-71
2022/10/27 05:40:05;;;;;;;9.97;6.70;;;;;;;7.31;100.00;101765.13;5000379;28;20806;-71
2022/10/27 05:42:32;;;;;;;8.80;5.63;;;;;;;7.31;100.00;101765.13;4999654;28;20241;-71
2022/10/27 05:44:59;;;;;;;6.87;5.60;;;;;;;7.29;100.00;101777.22;5000245;28;20212;-72
2022/10/27 05:47:26;;;;;;;6.83;5.23;;;;;;;7.30;100.00;101766.00;4999145;28;20201;-72
2022/10/27 05:49:52;;;;;;;11.80;6.53;;;;;;;7.31;100.00;101767.72;4999162;28;20545;-72
2022/10/27 05:52:18;;;;;;;11.53;6.63;;;;;;;7.33;100.00;101772.94;4996399;28;20233;-71
2022/10/27 05:54:45;;;;;;;9.87;6.37;;;;;;;7.37;100.00;101774.69;4997710;28;20567;-72
2022/10/27 05:57:11;;;;;;;11.70;6.80;;;;;;;7.42;100.00;101782.50;4999868;28;20204;-72
2022/10/27 05:59:37;;;;;;;12.40;6.87;;;;;;;7.48;100.00;101786.00;4996810;28;20207;-71
2022/10/27 06:02:06;;;;;;;9.17;7.77;;;;;;;7.49;100.00;101784.25;4993112;28;20351;-72
2022/10/27 06:04:32;;;;;;;7.93;6.00;;;;;;;7.51;100.00;101791.22;4995717;28;20252;-71
2022/10/27 06:06:58;;;;;;;11.47;7.13;;;;;;;7.51;100.00;101798.09;4997572;28;20486;-72
2022/10/27 06:09:25;;;;;;;8.20;6.53;;;;;;;7.56;100.00;101804.19;4975442;28;20207;-71
2022/10/27 06:11:51;;;;;;;13.50;7.43;;;;;;;7.56;100.00;101804.19;4993732;28;20229;-72
2022/10/27 06:14:17;;;;;;;9.83;7.23;;;;;;;7.63;100.00;101807.69;5000450;28;20208;-71
2022/10/27 06:16:44;;;;;;;10.63;7.53;;;;;;;7.59;100.00;101812.84;4998243;28;20519;-72
2022/10/27 06:19:11;;;;;;;11.43;7.60;;;;;;;7.63;100.00;101813.75;4998697;28;20202;-71
2022/10/27 06:21:38;;;;;;;10.37;6.40;;;;;;;7.63;100.00;101816.34;4997678;28;20594;-72
2022/10/27 06:24:05;;;;;;;8.47;7.27;;;;;;;7.64;100.00;101828.47;4999508;28;20207;-71
2022/10/27 06:26:31;;;;;;;9.13;6.83;;;;;;;7.69;100.00;101818.97;4996308;28;20455;-72
2022/10/27 06:28:58;;;;;;;10.30;7.33;;;;;;;7.73;100.00;101825.91;4998301;28;20222;-72
2022/10/27 06:31:24;;;;;;;13.23;7.87;;;;;;;7.80;100.00;101823.34;4997626;28;21645;-72
2022/10/27 06:33:50;;;;;;;14.53;8.30;;;;;;;7.82;100.00;101825.09;4998997;28;20568;-72
2022/10/27 06:36:18;;;;;;;12.87;8.37;;;;;;;7.87;100.00;101835.50;4999913;28;20304;-71
2022/10/27 06:38:44;;;;;;;12.33;9.07;;;;;;;7.93;100.00;101830.31;5002556;28;20259;-72
2022/10/27 06:41:11;;;;;;;16.77;8.83;;;;;;;8.02;100.00;101845.06;4999863;28;20405;-72
2022/10/27 06:43:37;;;;;;;12.60;9.20;;;;;;;8.14;100.00;101839.91;5001367;28;20202;-71
2022/10/27 06:46:04;;;;;;;12.53;8.57;;;;;;;8.26;100.00;101837.34;4981140;28;20211;-72
2022/10/27 06:48:30;;;;;;;16.70;9.03;;;;;;;8.36;100.00;101843.47;4997242;28;20203;-72
2022/10/27 06:50:56;;;;;;;15.17;9.33;;;;;;;8.48;100.00;101848.72;4999150;28;20252;-71
2022/10/27 06:53:24;;;;;;;16.83;10.20;;;;;;;8.58;100.00;101856.53;4998692;28;20204;-72
2022/10/27 06:55:50;;;;;;;13.27;9.20;;;;;;;8.62;100.00;101845.25;4998956;28;20204;-72
2022/10/27 06:58:17;;;;;;;13.97;9.77;;;;;;;8.72;100.00;101852.22;4998558;28;20208;-72
2022/10/27 07:00:43;;;;;;;16.70;9.57;;;;;;;8.78;100.00;101856.56;4999092;28;20208;-72
2022/10/27 07:03:10;;;;;;;13.53;9.83;;;;;;;8.85;100.00;101855.72;4997743;28;20251;-72
2022/10/27 07:05:36;;;;;;;15.57;10.27;;;;;;;8.89;100.00;101853.09;4980631;28;20243;-72
2022/10/27 07:08:05;;;;;;;15.70;9.80;;;;;;;8.95;100.00;101853.97;4992211;28;20209;-72
2022/10/27 07:10:32;;;;;;;14.97;9.43;;;;;;;9.03;100.00;101860.03;4991984;28;20208;-72
2022/10/27 07:13:00;;;;;;;17.23;11.60;;;;;;;9.09;100.00;101862.63;4992166;28;20224;-72
2022/10/27 07:15:30;;;;;;;16.27;9.43;;;;;;;9.17;100.00;101852.25;4992291;28;20196;-71
2022/10/27 07:17:57;;;;;;;19.63;10.87;;;;;;;9.22;100.00;101853.09;4998307;28;20208;-72
2022/10/27 07:20:24;;;;;;;16.47;10.80;;;;;;;9.30;100.00;101856.53;4997030;28;20209;-72
2022/10/27 07:22:50;;;;;;;17.20;10.23;;;;;;;9.37;100.00;101853.06;5001012;28;20236;-72
2022/10/27 07:25:16;;;;;;;18.77;10.53;;;;;;;9.44;100.00;101865.19;4995572;28;20271;-72
2022/10/27 07:27:52;;;;;;;18.60;11.33;;;;;;;9.51;100.00;101860.00;4994587;28;20205;-71
2022/10/27 07:30:19;;;;;;;20.90;12.43;;;;;;;9.63;100.00;101860.81;4988644;28;20209;-72
2022/10/27 07:32:45;;;;;;;20.20;11.53;;;;;;;9.74;100.00;101857.31;4996897;28;20589;-72
2022/10/27 07:35:12;;;;;;;21.53;12.07;;;;;;;9.78;100.00;101865.13;4994909;28;20200;-71
2022/10/27 07:37:42;;;;;;;19.10;12.27;;;;;;;9.91;100.00;101871.16;4994261;28;20201;-72
2022/10/27 07:40:10;;;;;;;22.87;13.10;;;;;;;10.04;100.00;101864.16;4992335;28;20201;-71
2022/10/27 07:42:41;;;;;;;20.60;12.70;;;;;;;10.13;100.00;101864.16;4995661;28;20223;-72
2022/10/27 07:45:10;;;;;;;20.40;12.13;;;;;;;10.24;100.00;101864.09;4999434;28;20217;-71
2022/10/27 07:47:36;;;;;;;24.67;13.37;;;;;;;10.32;100.00;101864.94;4993892;28;20211;-72
2022/10/27 07:50:03;;;;;;;19.23;11.63;;;;;;;10.43;100.00;101875.31;4999525;28;20558;-72
2022/10/27 07:52:30;;;;;;;24.93;12.90;;;;;;;10.51;100.00;101875.25;4999040;28;20731;-72
2022/10/27 07:54:56;;;;;;;24.43;12.90;;;;;;;10.62;100.00;101881.28;5000746;28;20290;-72
2022/10/27 07:57:22;;;;;;;21.93;12.50;;;;;;;10.71;100.00;101885.56;4999904;28;20190;-71
2022/10/27 07:59:49;;;;;;;25.50;12.40;;;;;;;10.80;100.00;101880.31;5003236;28;20207;-71
2022/10/27 08:02:16;;;;;;;28.37;13.37;;;;;;;10.90;100.00;101883.69;5002060;28;20231;-72
2022/10/27 08:04:43;;;;;;;23.10;12.90;;;;;;;10.99;100.00;101886.22;5001970;28;20204;-72
2022/10/27 08:07:09;;;;;;;24.73;12.87;;;;;;;11.08;100.00;101887.91;5002639;28;20204;-71
2022/10/27 08:09:35;;;;;;;22.60;11.90;;;;;;;11.14;100.00;101898.31;5002003;28;20216;-72
2022/10/27 08:12:02;;;;;;;28.77;13.67;;;;;;;11.21;100.00;101896.50;4996367;28;20228;-72
2022/10/27 08:14:28;;;;;;;24.47;12.50;;;;;;;11.29;100.00;101897.28;4993426;28;20203;-73
2022/10/27 08:16:57;;;;;;;25.13;13.03;;;;;;;11.33;100.00;101906.84;5000343;28;20205;-73
2022/10/27 08:19:25;;;;;;;27.97;12.33;;;;;;;11.39;100.00;101908.53;4998858;28;20204;-72
2022/10/27 08:21:51;;;;;;;17.97;10.63;;;;;;;11.46;100.00;101905.84;4998670;28;20227;-73
2022/10/27 08:24:17;;;;;;;25.00;12.40;;;;;;;11.54;100.00;101906.66;4998083;28;20201;-72
2022/10/27 08:26:44;;;;;;;21.67;11.70;;;;;;;11.62;100.00;101910.94;5001508;28;20208;-72
2022/10/27 08:29:10;;;;;;;20.37;11.83;;;;;;;11.73;100.00;101903.81;4998650;28;20203;-72
2022/10/27 08:31:36;;;;;;;27.10;12.33;;;;;;;11.82;100.00;101911.59;5001483;28;20220;-71
2022/10/27 08:34:03;;;;;;;24.63;11.43;;;;;;;11.87;100.00;101912.41;4999388;28;20204;-71
2022/10/27 08:36:37;;;;;;;23.30;11.40;;;;;;;11.97;100.00;101907.09;4996927;28;20212;-72
2022/10/27 08:39:04;;;;;;;27.33;10.80;;;;;;;12.05;100.00;101916.59;4997664;28;20287;-72
2022/10/27 08:41:38;;;;;;;23.63;11.90;;;;;;;12.12;100.00;101914.78;4997802;28;20799;-72
2022/10/27 08:44:17;;;;;;;20.23;10.90;;;;;;;12.22;100.00;101911.13;5001941;28;20200;-72
2022/10/27 08:46:47;;;;;;;20.47;11.37;;;;;;;12.35;100.00;101917.09;5003149;28;20208;-72
2022/10/27 08:49:28;;;;;;;21.43;11.20;;;;;;;12.40;100.00;101912.69;4997407;28;20205;-72
2022/10/27 08:52:02;;;;;;;17.43;10.40;;;;;;;12.44;100.00;101909.13;5019874;23;20203;-71
2022/10/27 08:54:29;;;;;;;20.10;10.53;;;;;;;12.57;100.00;101906.34;5041835;28;20663;-71
2022/10/27 08:56:58;;;;;;;22.87;10.60;;;;;;;12.71;100.00;101916.59;5040022;28;20203;-71
2022/10/27 08:59:26;;;;;;;15.97;9.87;;;;;;;12.84;100.00;101913.78;5036815;28;20205;-70
2022/10/27 09:01:58;;;;;;;16.70;10.17;;;;;;;12.89;100.00;101911.09;5037581;28;20648;-70
2022/10/27 09:04:38;;;;;;;19.40;10.10;;;;;;;12.94;100.00;101905.78;5059474;28;20204;-70
2022/10/27 09:07:16;;;;;;;20.00;10.77;;;;;;;13.00;100.00;101903.94;5062220;28;20194;-69
2022/10/27 09:09:50;;;;;;;18.57;9.60;;;;;;;13.14;100.00;101901.13;5059598;28;20404;-70
2022/10/27 09:12:25;;;;;;;21.00;10.20;;;;;;;13.30;100.00;101906.06;5056989;28;20247;-70
2022/10/27 09:15:06;;;;;;;19.10;9.93;;;;;;;13.37;100.00;101899.91;5056999;28;20191;-70
2022/10/27 09:17:38;;;;;;;18.93;9.73;;;;;;;13.43;100.00;101902.38;5053003;28;20305;-70
2022/10/27 09:20:07;;;;;;;25.20;10.90;;;;;;;13.48;100.00;101900.56;5059773;28;20307;-69
2022/10/27 09:22:41;;;;;;;17.37;10.03;;;;;;;13.54;100.00;101889.94;5039558;28;20218;-70
2022/10/27 09:25:16;;;;;;;21.13;10.47;;;;;;;13.68;100.00;101894.94;5058842;28;20206;-70
2022/10/27 09:27:45;;;;;;;19.87;9.83;;;;;;;13.77;100.00;101889.53;5057718;28;20203;-71
2022/10/27 09:30:13;;;;;;;22.47;11.00;;;;;;;13.87;100.00;101890.22;5059696;28;20200;-70
2022/10/27 09:32:42;;;;;;;15.30;9.67;;;;;;;13.94;100.00;101889.19;5057640;28;20593;-71
2022/10/27 09:35:11;;;;;;;21.97;10.87;;;;;;;13.98;100.00;101893.50;5058462;28;20217;-70
2022/10/27 09:37:41;;;;;;;14.40;8.57;;;;;;;14.02;100.00;101895.16;5058155;28;20612;-70
2022/10/27 09:40:12;;;;;;;17.00;9.30;;;;;;;14.11;100.00;101899.34;5058098;28;20206;-70
2022/10/27 09:42:38;;;;;;;18.03;10.00;;;;;;;14.29;100.00;101895.47;5059683;28;20222;-70
2022/10/27 09:45:14;;;;;;;20.73;9.80;;;;;;;14.44;100.00;101898.66;5052309;28;20283;-70
2022/10/27 09:47:44;;;;;;;17.20;10.23;;;;;;;14.45;100.00;101903.00;5050866;28;20912;-69
2022/10/27 09:50:18;;;;;;;22.03;9.73;;;;;;;14.51;100.00;101895.88;5026913;28;20209;-70
2022/10/27 09:52:47;;;;;;;23.00;9.87;;;;;;;14.60;100.00;101905.34;5050933;28;20226;-71
2022/10/27 09:55:15;;;;;;;24.87;10.77;;;;;;;14.73;100.00;101908.53;5053610;28;20571;-70
2022/10/27 09:57:43;;;;;;;20.07;10.27;;;;;;;14.82;100.00;101904.81;5062379;28;20195;-69
2022/10/27 10:00:24;;;;;;;21.77;10.23;;;;;;;14.93;100.00;101894.91;5043622;28;20267;-71
2022/10/27 10:02:59;;;;;;;23.93;10.40;;;;;;;14.99;100.00;101896.56;5060311;28;20218;-70
2022/10/27 10:05:28;;;;;;;20.63;10.13;;;;;;;15.07;100.00;101898.06;5039666;28;20206;-70
2022/10/27 10:08:12;;;;;;;19.93;10.67;;;;;;;15.18;100.00;101904.81;5059545;28;20235;-70
2022/10/27 10:10:39;;;;;;;21.23;11.10;;;;;;;15.19;100.00;101899.53;5059142;28;20618;-70
2022/10/27 10:13:12;;;;;;;23.13;11.20;;;;;;;15.32;100.00;101900.97;5057506;28;20744;-71
2022/10/27 10:15:42;;;;;;;24.33;11.43;;;;;;;15.43;100.00;101900.69;5054851;28;20199;-70
2022/10/27 10:18:23;;;;;;;20.83;10.33;;;;;;;15.53;100.00;101896.91;5056987;28;20256;-69
2022/10/27 10:20:57;;;;;;;18.27;10.20;;;;;;;15.60;100.00;101896.72;5058013;28;20190;-70
2022/10/27 10:23:27;;;;;;;22.53;10.90;;;;;;;15.61;100.00;101890.56;5058865;28;20218;-71
2022/10/27 10:25:56;;;;;;;18.37;9.73;;;;;;;15.71;100.00;101895.53;5055824;28;20206;-70
2022/10/27 10:28:31;;;;;;;17.67;9.13;;;;;;;15.77;100.00;101894.53;5043582;28;20202;-70
2022/10/27 10:30:59;;;;;;;17.57;9.13;;;;;;;15.86;100.00;101893.41;5027510;28;20206;-70
2022/10/27 10:33:30;;;;;;;14.37;7.77;;;;;;;15.90;100.00;101889.81;5052056;28;20225;-69
2022/10/27 10:35:57;;;;;;;16.30;7.93;;;;;;;16.01;100.00;101885.09;5050595;28;20208;-70
2022/10/27 10:38:36;;;;;;;14.43;7.23;;;;;;;16.02;100.00;101884.19;5056938;28;20206;-69
2022/10/27 10:41:05;;;;;;;11.80;6.27;;;;;;;16.11;100.00;101880.41;5049437;28;20209;-70
2022/10/27 10:43:33;;;;;;;10.03;5.63;;;;;;;16.16;100.00;101883.78;5055690;28;20226;-70
2022/10/27 10:46:00;;;;;;;8.93;4.60;;;;;;;16.24;100.00;101873.88;5060341;28;20202;-69
2022/10/27 10:48:31;;;;;;;9.37;4.63;;;;;;;16.33;100.00;101883.28;5059231;28;20203;-70
2022/10/27 10:50:58;;;;;;;4.87;3.77;;;;;;;16.34;100.00;101881.50;5055246;28;20407;-70
2022/10/27 10:53:28;;;;;;;5.90;3.20;;;;;;;16.31;100.00;101871.94;5055047;28;20230;-69
2022/10/27 10:56:00;;;;;;;3.97;2.87;;;;;;;16.28;100.00;101879.91;5057044;28;20609;-71
2022/10/27 10:58:30;;;;;;;3.97;2.60;;;;;;;16.32;100.00;101872.78;5054821;28;20798;-69
2022/10/27 11:00:59;;;;;;;2.60;2.30;;;;;;;16.36;100.00;101872.66;5055699;28;20553;-69
2022/10/27 11:03:29;;;;;;;6.10;2.30;;;;;;;16.38;100.00;101868.22;5055994;28;20219;-69
2022/10/27 11:05:59;;;;;;;5.00;2.03;;;;;;;16.42;100.00;101866.34;5058845;28;20190;-69
2022/10/27 11:08:33;;;;;;;2.63;1.97;;;;;;;16.40;100.00;101861.13;5052791;28;20194;-70
2022/10/27 11:11:04;;;;;;;2.03;1.90;;;;;;;16.47;100.00;101872.34;5055113;28;20205;-70
2022/10/27 11:13:39;;;;;;;3.77;2.17;;;;;;;16.51;100.00;101867.84;5050320;28;20804;-70
2022/10/27 11:16:09;;;;;;;3.67;2.33;;;;;;;16.58;100.00;101864.09;5053712;28;20214;-70
2022/10/27 11:18:48;;;;;;;2.20;2.00;;;;;;;16.63;100.00;101864.81;5037775;28;20193;-70
2022/10/27 11:21:22;;;;;;;3.20;2.10;;;;;;;16.70;100.00;101863.69;5047486;28;20195;-70
2022/10/27 11:23:51;;;;;;;3.30;2.13;;;;;;;16.74;100.00;101867.94;5054627;28;20222;-69
2022/10/27 11:26:23;;;;;;;4.40;1.80;;;;;;;16.75;100.00;101874.94;5050572;28;20198;-70